createdAt,value
2023-03-22T00:02:43.994Z,11.33
2023-03-22T00:05:31.032Z,11.53
2023-03-22T00:08:16.380Z,11.54
2023-03-22T00:11:01.889Z,11.32
2023-03-22T00:13:49.688Z,11.51
2023-03-22T00:16:34.790Z,11.66
2023-03-22T00:19:21.180Z,11.38
2023-03-22T00:22:13.993Z,11.44
2023-03-22T00:24:59.951Z,11.33
2023-03-22T00:27:50.828Z,11.36
2023-03-22T00:30:36.341Z,11.33
2023-03-22T00:33:24.850Z,11.60
2023-03-22T00:36:20.064Z,11.21
2023-03-22T00:39:15.049Z,11.35
2023-03-22T00:42:02.442Z,11.34
2023-03-22T00:44:47.813Z,11.30
2023-03-22T00:47:32.672Z,11.23
2023-03-22T00:50:18.866Z,11.13
2023-03-22T00:53:04.693Z,11.02
2023-03-22T00:55:51.575Z,11.32
2023-03-22T00:58:48.545Z,11.19
2023-03-22T01:01:35.505Z,11.02
2023-03-22T01:04:27.309Z,10.97
2023-03-22T01:07:20.276Z,10.83
2023-03-22T01:10:10.938Z,10.91
2023-03-22T01:12:59.225Z,11.04
2023-03-22T01:15:48.455Z,10.88
2023-03-22T01:18:36.395Z,11.03
2023-03-22T01:21:24.240Z,11.08
2023-03-22T01:24:10.616Z,10.96
2023-03-22T01:29:58.940Z,10.63
2023-03-22T01:32:48.881Z,10.57
2023-03-22T01:36:06.878Z,10.57
2023-03-22T01:42:06.245Z,10.67
2023-03-22T01:45:13.942Z,10.90
2023-03-22T01:48:20.514Z,10.89
2023-03-22T01:51:29.078Z,10.70
2023-03-22T01:58:05.880Z,10.88
2023-03-22T02:01:19.108Z,10.58
2023-03-22T02:04:23.973Z,10.54
2023-03-22T02:10:29.347Z,10.56
2023-03-22T02:14:00.585Z,10.65
2023-03-22T02:17:36.469Z,10.76
2023-03-22T02:21:23.721Z,10.70
2023-03-22T02:24:52.479Z,10.56
2023-03-22T02:28:20.151Z,10.62
2023-03-22T02:31:31.629Z,10.45
2023-03-22T02:35:10.450Z,10.48
2023-03-22T02:38:49.399Z,10.43
2023-03-22T02:42:35.558Z,10.39
2023-03-22T02:46:00.092Z,10.43
2023-03-22T02:49:10.329Z,10.23
2023-03-22T02:52:21.376Z,10.35
2023-03-22T02:55:25.963Z,10.18
2023-03-22T03:01:58.591Z,9.98
2023-03-22T03:04:51.536Z,9.93
2023-03-22T03:07:43.368Z,9.98
2023-03-22T03:10:32.823Z,10.07
2023-03-22T03:13:20.070Z,9.82
2023-03-22T03:16:10.742Z,9.97
2023-03-22T03:19:34.177Z,9.64
2023-03-22T03:22:56.779Z,9.51
2023-03-22T03:26:19.084Z,9.79
2023-03-22T03:29:25.021Z,9.47
2023-03-22T03:32:28.541Z,9.48
2023-03-22T03:35:22.973Z,9.61
2023-03-22T03:38:28.183Z,9.81
2023-03-22T03:41:29.346Z,9.84
2023-03-22T03:44:19.845Z,9.66
2023-03-22T03:47:09.631Z,9.65
2023-03-22T03:50:01.620Z,9.68
2023-03-22T03:52:52.188Z,9.46
2023-03-22T03:56:01.474Z,9.43
2023-03-22T03:58:55.547Z,9.35
2023-03-22T04:01:50.661Z,9.73
2023-03-22T04:05:00.225Z,9.72
2023-03-22T04:07:59.308Z,9.80
2023-03-22T04:11:38.434Z,9.55
2023-03-22T04:14:28.969Z,9.22
2023-03-22T04:17:26.476Z,9.09
2023-03-22T04:20:15.325Z,9.39
2023-03-22T04:23:16.406Z,9.21
2023-03-22T04:26:07.051Z,9.25
2023-03-22T04:29:21.181Z,9.35
2023-03-22T04:32:19.592Z,9.51
2023-03-22T04:35:06.963Z,9.37
2023-03-22T04:37:57.281Z,9.62
2023-03-22T04:40:47.138Z,9.19
2023-03-22T04:43:39.928Z,9.32
2023-03-22T04:46:36.084Z,9.64
2023-03-22T04:49:24.374Z,9.37
2023-03-22T04:55:12.674Z,9.31
2023-03-22T04:58:07.411Z,9.45
2023-03-22T05:00:56.760Z,9.51
2023-03-22T05:03:48.620Z,9.48
2023-03-22T05:06:41.971Z,9.61
2023-03-22T05:09:45.971Z,9.63
2023-03-22T05:12:37.045Z,9.74
2023-03-22T05:15:42.792Z,9.54
2023-03-22T05:18:31.275Z,9.36
2023-03-22T05:21:22.602Z,9.49
2023-03-22T05:24:17.047Z,9.39
2023-03-22T05:27:08.764Z,9.43
2023-03-22T05:29:59.127Z,9.51
2023-03-22T05:33:04.731Z,9.48
2023-03-22T05:35:55.219Z,9.65
2023-03-22T05:38:54.612Z,9.39
2023-03-22T05:41:51.828Z,9.57
2023-03-22T05:44:59.082Z,9.52
2023-03-22T05:47:59.890Z,9.41
2023-03-22T05:51:07.313Z,9.34
2023-03-22T05:53:56.236Z,9.39
2023-03-22T05:57:09.870Z,9.37
2023-03-22T06:00:11.552Z,9.52
2023-03-22T06:03:03.998Z,9.46
2023-03-22T06:06:18.486Z,9.41
2023-03-22T06:09:17.515Z,9.46
2023-03-22T06:12:10.357Z,9.46
2023-03-22T06:14:56.877Z,9.55
2023-03-22T06:18:06.995Z,9.64
2023-03-22T06:21:02.096Z,9.74
2023-03-22T06:23:48.788Z,9.82
2023-03-22T06:26:40.613Z,9.92
2023-03-22T06:29:28.643Z,9.98
2023-03-22T06:32:36.410Z,10.07
2023-03-22T06:35:23.881Z,10.04
2023-03-22T06:38:10.797Z,9.96
2023-03-22T06:41:01.041Z,10.08
2023-03-22T06:43:51.388Z,10.02
2023-03-22T06:46:59.099Z,10.25
2023-03-22T06:50:05.265Z,10.25
2023-03-22T06:53:22.133Z,10.16
2023-03-22T06:56:17.544Z,10.13
2023-03-22T06:59:28.321Z,10.20
2023-03-22T07:02:16.567Z,10.38
2023-03-22T07:05:22.305Z,10.35
2023-03-22T07:08:14.065Z,10.44
2023-03-22T07:11:08.403Z,10.30
2023-03-22T07:14:01.065Z,10.14
2023-03-22T07:20:06.295Z,10.25
2023-03-22T07:22:54.415Z,10.52
2023-03-22T07:25:43.494Z,10.42
2023-03-22T07:28:46.284Z,10.50
2023-03-22T07:31:36.675Z,10.63
2023-03-22T07:34:42.540Z,10.69
2023-03-22T07:37:35.978Z,10.57
2023-03-22T07:40:26.452Z,10.75
2023-03-22T07:43:13.616Z,10.86
2023-03-22T07:46:15.117Z,10.93
2023-03-22T07:49:32.752Z,10.92
2023-03-22T07:52:25.785Z,11.10
2023-03-22T07:55:15.112Z,11.15
2023-03-22T08:01:09.633Z,11.21
2023-03-22T08:04:11.099Z,11.45
2023-03-22T08:07:15.100Z,11.38
2023-03-22T08:10:19.716Z,11.45
2023-03-22T08:13:09.439Z,11.52
2023-03-22T08:15:58.310Z,11.67
2023-03-22T08:18:45.350Z,12.05
2023-03-22T08:21:32.750Z,11.76
2023-03-22T08:24:19.812Z,11.78
2023-03-22T08:27:20.352Z,11.97
2023-03-22T08:30:10.256Z,11.93
2023-03-22T08:33:20.160Z,12.26
2023-03-22T08:36:20.893Z,12.41
2023-03-22T08:39:15.434Z,12.25
2023-03-22T08:42:32.661Z,12.37
2023-03-22T08:45:24.232Z,12.37
2023-03-22T08:48:18.299Z,12.66
2023-03-22T08:51:24.714Z,12.90
2023-03-22T08:54:29.318Z,12.89
2023-03-22T08:57:38.669Z,12.87
2023-03-22T09:00:48.518Z,12.87
2023-03-22T09:03:42.962Z,13.22
2023-03-22T09:06:27.705Z,13.21
2023-03-22T09:09:19.042Z,13.07
2023-03-22T09:12:10.513Z,13.08
2023-03-22T09:14:57.830Z,13.25
2023-03-22T09:17:45.409Z,13.45
2023-03-22T09:20:31.400Z,13.35
2023-03-22T09:23:16.536Z,13.50
2023-03-22T09:26:05.624Z,14.14
2023-03-22T09:28:50.624Z,14.54
2023-03-22T09:31:36.956Z,14.62
2023-03-22T09:34:42.213Z,15.35
2023-03-22T09:37:30.531Z,15.51
2023-03-22T09:40:17.881Z,15.39
2023-03-22T09:43:08.174Z,15.79
2023-03-22T09:45:54.311Z,15.51
2023-03-22T09:48:42.895Z,16.22
2023-03-22T09:51:47.851Z,16.27
2023-03-22T09:54:37.955Z,16.22
2023-03-22T09:57:37.990Z,15.94
2023-03-22T10:00:48.263Z,15.87
2023-03-22T10:04:13.135Z,15.64
2023-03-22T10:07:51.451Z,15.60
2023-03-22T10:10:41.933Z,15.91
2023-03-22T10:13:48.647Z,16.53
2023-03-22T10:16:35.739Z,16.53
2023-03-22T10:19:35.760Z,16.31
2023-03-22T10:22:30.182Z,16.18
2023-03-22T10:25:22.321Z,16.24
2023-03-22T10:28:29.008Z,15.94
2023-03-22T10:31:21.368Z,16.29
2023-03-22T10:34:20.558Z,16.29
2023-03-22T10:37:12.118Z,15.81
2023-03-22T10:40:02.249Z,16.44
2023-03-22T10:42:55.800Z,16.56
2023-03-22T10:45:40.447Z,16.22
2023-03-22T10:48:39.603Z,16.47
2023-03-22T10:51:49.635Z,16.71
2023-03-22T10:54:33.393Z,16.94
2023-03-22T10:57:17.502Z,16.95
2023-03-22T11:00:07.834Z,16.60
2023-03-22T11:02:58.424Z,16.59
2023-03-22T11:05:42.083Z,16.84
2023-03-22T11:08:25.570Z,16.80
2023-03-22T11:11:35.041Z,16.97
2023-03-22T11:14:28.225Z,16.75
2023-03-22T11:17:25.896Z,16.80
2023-03-22T11:20:19.446Z,17.07
2023-03-22T11:23:06.971Z,16.75
2023-03-22T11:25:53.083Z,16.77
2023-03-22T11:28:48.003Z,16.99
2023-03-22T11:32:00.185Z,17.22
2023-03-22T11:34:46.549Z,17.09
2023-03-22T11:37:30.063Z,16.92
2023-03-22T11:40:24.748Z,16.78
2023-03-22T11:43:22.611Z,16.59
2023-03-22T11:46:08.978Z,16.28
2023-03-22T11:49:01.469Z,16.42
2023-03-22T11:51:45.965Z,16.59
2023-03-22T11:54:35.611Z,16.78
2023-03-22T11:57:30.843Z,16.78
2023-03-22T12:00:24.804Z,16.89
2023-03-22T12:03:21.792Z,16.81
2023-03-22T12:06:25.474Z,17.14
2023-03-22T12:09:41.773Z,17.16
2023-03-22T12:12:32.034Z,17.33
2023-03-22T12:15:29.239Z,17.78
2023-03-22T12:18:41.603Z,18.11
2023-03-22T12:21:25.128Z,18.09
2023-03-22T12:24:26.261Z,18.19
2023-03-22T12:27:23.537Z,17.87
2023-03-22T12:30:23.685Z,17.38
2023-03-22T12:33:26.644Z,17.91
2023-03-22T12:36:20.583Z,18.13
2023-03-22T12:39:09.556Z,17.93
2023-03-22T12:42:00.481Z,18.18
2023-03-22T12:44:55.504Z,18.03
2023-03-22T12:48:01.042Z,17.35
2023-03-22T12:51:05.604Z,17.76
2023-03-22T12:53:55.601Z,17.61
2023-03-22T12:56:44.966Z,17.58
2023-03-22T12:59:32.094Z,17.73
2023-03-22T13:02:32.742Z,18.49
2023-03-22T13:05:18.439Z,18.02
2023-03-22T13:08:05.504Z,17.54
2023-03-22T13:11:04.113Z,17.69
2023-03-22T13:13:48.077Z,17.56
2023-03-22T13:16:56.272Z,17.59
2023-03-22T13:19:51.518Z,17.96
2023-03-22T13:22:38.225Z,18.09
2023-03-22T13:25:34.356Z,17.84
2023-03-22T13:28:29.604Z,17.74
2023-03-22T13:31:45.389Z,17.59
2023-03-22T13:34:52.098Z,17.75
2023-03-22T13:37:49.524Z,17.52
2023-03-22T13:40:49.800Z,17.27
2023-03-22T13:43:39.072Z,17.68
2023-03-22T13:46:22.613Z,17.56
2023-03-22T13:49:36.946Z,17.62
2023-03-22T13:52:29.283Z,17.98
2023-03-22T13:55:41.716Z,18.27
2023-03-22T13:58:43.828Z,18.34
2023-03-22T14:01:35.306Z,17.60
2023-03-22T14:04:43.511Z,17.59
2023-03-22T14:07:44.351Z,17.60
2023-03-22T14:10:44.731Z,17.68
2023-03-22T14:13:42.577Z,17.68
2023-03-22T14:17:09.457Z,18.23
2023-03-22T14:19:53.442Z,18.48
2023-03-22T14:53:59.832Z,18.16
2023-03-22T14:56:46.738Z,17.67
2023-03-22T14:59:30.623Z,18.13
2023-03-22T15:02:42.745Z,18.24
2023-03-22T15:05:34.567Z,18.15
2023-03-22T15:08:18.517Z,18.15
2023-03-22T15:11:06.552Z,17.75
2023-03-22T15:13:52.417Z,17.88
2023-03-22T15:16:39.721Z,17.87
2023-03-22T15:19:25.066Z,17.85
2023-03-22T15:22:19.984Z,17.52
2023-03-22T15:25:06.044Z,17.39
2023-03-22T15:27:51.016Z,17.48
2023-03-22T15:30:36.988Z,17.05
2023-03-22T15:33:34.795Z,17.15
2023-03-22T15:36:19.908Z,17.25
2023-03-22T15:39:35.147Z,17.17
2023-03-22T15:42:27.028Z,17.06
2023-03-22T15:45:21.129Z,17.11
2023-03-22T15:48:11.980Z,17.19
2023-03-22T15:50:56.086Z,17.06
2023-03-22T15:53:41.190Z,17.13
2023-03-22T15:56:40.291Z,17.25
2023-03-22T15:59:29.657Z,17.21
2023-03-22T16:02:30.574Z,16.97
2023-03-22T16:05:14.171Z,16.80
2023-03-22T16:07:58.968Z,16.49
2023-03-22T16:10:45.321Z,16.59
2023-03-22T16:13:31.376Z,16.73
2023-03-22T16:16:19.280Z,16.89
2023-03-22T16:19:02.879Z,16.50
2023-03-22T16:21:46.564Z,16.46
2023-03-22T16:24:30.135Z,16.60
2023-03-22T16:27:19.008Z,16.66
2023-03-22T16:30:02.529Z,16.43
2023-03-22T16:32:48.772Z,16.46
2023-03-22T16:35:33.932Z,16.38
2023-03-22T16:38:18.226Z,16.58
2023-03-22T16:41:06.204Z,16.50
2023-03-22T16:43:50.600Z,16.35
2023-03-22T16:46:36.550Z,16.23
2023-03-22T16:49:20.175Z,16.56
2023-03-22T16:52:04.158Z,16.40
2023-03-22T16:54:50.415Z,16.16
2023-03-22T16:57:34.062Z,16.32
2023-03-22T17:00:21.602Z,16.16
2023-03-22T17:03:09.682Z,16.28
2023-03-22T17:05:53.295Z,16.12
2023-03-22T17:08:36.854Z,16.13
2023-03-22T17:11:25.094Z,15.79
2023-03-22T17:14:13.189Z,16.07
2023-03-22T17:16:59.528Z,15.44
2023-03-22T17:19:44.918Z,15.50
2023-03-22T17:22:29.246Z,15.39
2023-03-22T17:25:24.431Z,15.45
2023-03-22T17:28:12.212Z,15.32
2023-03-22T17:30:56.281Z,15.39
2023-03-22T17:33:39.822Z,15.35
2023-03-22T17:36:23.770Z,15.29
2023-03-22T17:39:20.978Z,15.34
2023-03-22T17:42:15.705Z,15.16
2023-03-22T17:44:59.740Z,15.39
2023-03-22T17:47:44.849Z,15.40
2023-03-22T17:50:32.032Z,15.39
2023-03-22T17:53:35.428Z,15.45
2023-03-22T17:59:08.172Z,15.40
2023-03-22T18:01:51.680Z,15.43
2023-03-22T18:04:37.886Z,15.25
2023-03-22T18:07:21.830Z,15.43
2023-03-22T18:10:07.926Z,15.43
2023-03-22T18:12:53.229Z,15.30
2023-03-22T18:15:36.846Z,15.46
2023-03-22T18:18:20.462Z,15.49
2023-03-22T18:21:06.361Z,15.50
2023-03-22T18:23:49.943Z,15.24
2023-03-22T18:29:22.022Z,15.23
2023-03-22T18:32:17.304Z,15.35
2023-03-22T18:35:02.498Z,15.24
2023-03-22T18:37:46.098Z,15.29
2023-03-22T18:41:10.006Z,15.23
2023-03-22T18:43:36.882Z,15.27
2023-03-22T18:46:21.073Z,15.29
2023-03-22T18:49:04.629Z,15.09
2023-03-22T18:52:19.065Z,15.40
2023-03-22T18:55:01.538Z,15.31
2023-03-22T18:57:57.375Z,14.98
2023-03-22T19:00:40.962Z,15.13
2023-03-22T19:03:24.833Z,15.26
2023-03-22T19:06:16.270Z,15.26
2023-03-22T19:08:59.883Z,15.31
2023-03-22T19:11:43.823Z,15.00
2023-03-22T19:15:14.738Z,15.00
2023-03-22T19:17:33.189Z,15.10
2023-03-22T19:20:16.935Z,15.10
2023-03-22T19:23:00.644Z,15.02
2023-03-22T19:25:44.287Z,14.52
2023-03-22T19:28:27.847Z,14.77
2023-03-22T19:31:11.470Z,14.91
2023-03-22T19:33:56.575Z,15.05
2023-03-22T19:36:42.231Z,14.78
2023-03-22T19:39:26.384Z,14.95
2023-03-22T19:42:10.604Z,14.91
2023-03-22T19:44:55.200Z,14.88
2023-03-22T19:47:52.106Z,15.25
2023-03-22T19:50:45.622Z,15.21
2023-03-22T19:54:18.353Z,15.06
2023-03-22T19:56:40.345Z,15.08
2023-03-22T19:59:24.019Z,15.06
2023-03-22T20:02:07.570Z,15.24
2023-03-22T20:04:52.759Z,15.31
2023-03-22T20:07:36.918Z,15.35
2023-03-22T20:10:22.494Z,15.24
2023-03-22T20:13:06.217Z,14.95
2023-03-22T20:15:49.825Z,15.01
2023-03-22T20:18:33.663Z,15.21
2023-03-22T20:21:17.340Z,15.04
2023-03-22T20:24:02.570Z,14.77
2023-03-22T20:26:46.167Z,15.18
2023-03-22T20:29:29.783Z,15.00
2023-03-22T20:32:13.373Z,14.92
2023-03-22T20:34:57.061Z,15.00
2023-03-22T20:37:41.669Z,15.34
2023-03-22T20:40:25.262Z,14.94
2023-03-22T20:43:08.866Z,14.92
2023-03-22T20:45:53.011Z,14.83
2023-03-22T20:48:36.951Z,15.00
2023-03-22T20:51:21.425Z,15.03
2023-03-22T20:54:05.334Z,14.57
2023-03-22T20:56:48.943Z,14.47
2023-03-22T20:59:35.777Z,14.74
2023-03-22T21:02:20.172Z,14.48
2023-03-22T21:05:04.252Z,14.50
2023-03-22T21:07:48.629Z,14.25
2023-03-22T21:10:32.471Z,14.39
2023-03-22T21:13:16.146Z,14.43
2023-03-22T21:15:59.881Z,14.26
2023-03-22T21:18:44.647Z,14.08
2023-03-22T21:21:28.275Z,14.22
2023-03-22T21:24:12.042Z,14.23
2023-03-22T21:26:55.568Z,14.12
2023-03-22T21:29:39.201Z,14.41
2023-03-22T21:32:24.014Z,14.49
2023-03-22T21:35:08.990Z,14.48
2023-03-22T21:37:58.219Z,14.31
2023-03-22T21:40:50.314Z,14.32
2023-03-22T21:43:38.143Z,14.13
2023-03-22T21:46:24.193Z,14.01
2023-03-22T21:49:09.416Z,13.89
2023-03-22T21:51:55.323Z,14.13
2023-03-22T21:54:39.284Z,13.95
2023-03-22T21:57:25.213Z,13.61
2023-03-22T22:00:09.810Z,13.73
2023-03-22T22:02:53.333Z,13.89
2023-03-22T22:05:39.123Z,13.59
2023-03-22T22:08:24.367Z,13.73
2023-03-22T22:11:10.041Z,13.63
2023-03-22T22:13:53.553Z,13.51
2023-03-22T22:16:38.193Z,13.62
2023-03-22T22:19:21.736Z,13.56
2023-03-22T22:22:05.427Z,13.42
2023-03-22T22:24:48.912Z,13.66
2023-03-22T22:27:32.872Z,13.72
2023-03-22T22:30:18.287Z,13.56
2023-03-22T22:33:03.905Z,13.19
2023-03-22T22:35:47.953Z,13.22
2023-03-22T22:38:31.465Z,13.39
2023-03-22T22:41:17.848Z,13.16
2023-03-22T22:44:01.457Z,13.23
2023-03-22T22:46:45.153Z,13.40
2023-03-22T22:49:31.939Z,13.43
2023-03-22T22:52:15.585Z,13.32
2023-03-22T22:55:13.144Z,13.23
2023-03-22T22:57:57.620Z,13.22
2023-03-22T23:00:41.582Z,13.23
2023-03-22T23:03:28.838Z,13.55
2023-03-22T23:06:21.864Z,13.43
2023-03-22T23:09:06.025Z,13.31
2023-03-22T23:11:49.565Z,13.38
2023-03-22T23:14:33.592Z,13.26
2023-03-22T23:17:19.883Z,13.27
2023-03-22T23:20:13.252Z,13.01
2023-03-22T23:22:56.734Z,13.18
2023-03-22T23:25:40.518Z,13.12
2023-03-22T23:28:26.809Z,12.91
2023-03-22T23:31:15.813Z,12.97
2023-03-22T23:34:04.197Z,13.18
2023-03-22T23:36:52.042Z,12.84
2023-03-22T23:39:35.580Z,12.91
2023-03-22T23:42:19.708Z,12.82
2023-03-22T23:45:04.154Z,12.89
2023-03-22T23:47:49.132Z,12.99
2023-03-22T23:50:34.126Z,12.88
2023-03-22T23:53:17.782Z,12.93
2023-03-22T23:56:01.744Z,12.78
2023-03-22T23:58:46.938Z,12.75
